sensor_id;sensor_type;location;lat;lon;timestamp;pressure;altitude;pressure_sealevel;temperature;humidity
10700;BME280;5401;41.986;21.452;2023-03-03T00:01:01;98419.63;;;10.83;98.33
10700;BME280;5401;41.986;21.452;2023-03-03T00:03:28;98419.44;;;10.78;98.71
10700;BME280;5401;41.986;21.452;2023-03-03T00:05:58;98430.56;;;10.82;98.60
10700;BME280;5401;41.986;21.452;2023-03-03T00:08:26;98385.75;;;10.58;98.38
10700;BME280;5401;41.986;21.452;2023-03-03T00:10:53;98407.94;;;10.71;98.63
10700;BME280;5401;41.986;21.452;2023-03-03T00:13:24;98401.81;;;10.65;98.73
10700;BME280;5401;41.986;21.452;2023-03-03T00:15:52;98416.56;;;10.80;98.95
10700;BME280;5401;41.986;21.452;2023-03-03T00:18:25;98407.34;;;10.69;98.47
10700;BME280;5401;41.986;21.452;2023-03-03T00:20:57;98388.81;;;10.62;98.67
10700;BME280;5401;41.986;21.452;2023-03-03T00:23:29;98402.19;;;10.68;98.75
10700;BME280;5401;41.986;21.452;2023-03-03T00:25:58;98414.72;;;10.74;98.88
10700;BME280;5401;41.986;21.452;2023-03-03T00:28:28;98385.75;;;10.58;98.55
10700;BME280;5401;41.986;21.452;2023-03-03T00:30:58;98404.44;;;10.71;98.86
10700;BME280;5401;41.986;21.452;2023-03-03T00:33:30;98403.19;;;10.73;98.71
10700;BME280;5401;41.986;21.452;2023-03-03T00:38:48;98393.78;;;10.65;98.49
10700;BME280;5401;41.986;21.452;2023-03-03T00:41:20;98394.13;;;10.74;98.64
10700;BME280;5401;41.986;21.452;2023-03-03T00:43:50;98393.91;;;10.76;98.53
10700;BME280;5401;41.986;21.452;2023-03-03T00:46:19;98378.94;;;10.68;98.81
10700;BME280;5401;41.986;21.452;2023-03-03T00:48:48;98376.47;;;10.67;98.78
10700;BME280;5401;41.986;21.452;2023-03-03T00:51:26;98379.75;;;10.69;98.96
10700;BME280;5401;41.986;21.452;2023-03-03T00:53:54;98370.09;;;10.62;98.85
10700;BME280;5401;41.986;21.452;2023-03-03T00:56:23;98384.28;;;10.68;98.82
10700;BME280;5401;41.986;21.452;2023-03-03T00:58:50;98369.88;;;10.63;98.95
10700;BME280;5401;41.986;21.452;2023-03-03T01:01:18;98380.56;;;10.69;99.02
10700;BME280;5401;41.986;21.452;2023-03-03T01:03:46;98369.06;;;10.63;98.79
10700;BME280;5401;41.986;21.452;2023-03-03T01:06:13;98378.50;;;10.71;99.07
10700;BME280;5401;41.986;21.452;2023-03-03T01:08:43;98373.94;;;10.72;99.13
10700;BME280;5401;41.986;21.452;2023-03-03T01:11:12;98366.97;;;10.71;99.07
10700;BME280;5401;41.986;21.452;2023-03-03T01:13:44;98303.91;;;10.32;98.67
10700;BME280;5401;41.986;21.452;2023-03-03T01:16:13;98362.44;;;10.71;99.09
10700;BME280;5401;41.986;21.452;2023-03-03T01:18:41;98360.81;;;10.64;99.36
10700;BME280;5401;41.986;21.452;2023-03-03T01:21:10;98358.75;;;10.66;99.21
10700;BME280;5401;41.986;21.452;2023-03-03T01:23:38;98358.31;;;10.69;98.98
10700;BME280;5401;41.986;21.452;2023-03-03T01:26:07;98357.28;;;10.70;98.89
10700;BME280;5401;41.986;21.452;2023-03-03T01:28:34;98347.81;;;10.68;98.95
10700;BME280;5401;41.986;21.452;2023-03-03T01:31:02;98353.19;;;10.68;99.19
10700;BME280;5401;41.986;21.452;2023-03-03T01:33:30;98351.53;;;10.67;99.08
10700;BME280;5401;41.986;21.452;2023-03-03T01:35:58;98354.00;;;10.68;99.03
10700;BME280;5401;41.986;21.452;2023-03-03T01:38:26;98345.16;;;10.68;99.09
10700;BME280;5401;41.986;21.452;2023-03-03T01:40:54;98347.81;;;10.68;98.88
10700;BME280;5401;41.986;21.452;2023-03-03T01:43:25;98345.16;;;10.68;98.98
10700;BME280;5401;41.986;21.452;2023-03-03T01:48:56;98337.97;;;10.62;99.03
10700;BME280;5401;41.986;21.452;2023-03-03T01:51:30;98345.19;;;10.61;99.04
10700;BME280;5401;41.986;21.452;2023-03-03T01:54:00;98336.13;;;10.56;99.32
10700;BME280;5401;41.986;21.452;2023-03-03T01:56:29;98345.38;;;10.60;99.56
10700;BME280;5401;41.986;21.452;2023-03-03T01:59:00;98339.00;;;10.61;99.23
10700;BME280;5401;41.986;21.452;2023-03-03T02:01:30;98340.84;;;10.60;99.14
10700;BME280;5401;41.986;21.452;2023-03-03T02:03:59;98342.50;;;10.61;99.47
10700;BME280;5401;41.986;21.452;2023-03-03T02:06:30;98335.06;;;10.63;99.39
10700;BME280;5401;41.986;21.452;2023-03-03T02:09:05;98326.66;;;10.60;99.30
10700;BME280;5401;41.986;21.452;2023-03-03T02:11:35;98337.75;;;10.63;99.39
10700;BME280;5401;41.986;21.452;2023-03-03T02:14:05;98333.22;;;10.64;99.21
10700;BME280;5401;41.986;21.452;2023-03-03T02:16:32;98335.91;;;10.64;98.95
10700;BME280;5401;41.986;21.452;2023-03-03T02:19:00;98332.81;;;10.60;99.24
10700;BME280;5401;41.986;21.452;2023-03-03T02:21:28;98325.88;;;10.53;99.34
10700;BME280;5401;41.986;21.452;2023-03-03T02:24:00;98326.25;;;10.56;98.98
10700;BME280;5401;41.986;21.452;2023-03-03T02:26:33;98332.66;;;10.55;99.27
10700;BME280;5401;41.986;21.452;2023-03-03T02:29:03;98331.84;;;10.55;99.30
10700;BME280;5401;41.986;21.452;2023-03-03T02:31:31;98334.72;;;10.53;99.63
10700;BME280;5401;41.986;21.452;2023-03-03T02:33:59;98328.13;;;10.49;99.11
10700;BME280;5401;41.986;21.452;2023-03-03T02:36:28;98322.41;;;10.39;99.09
10700;BME280;5401;41.986;21.452;2023-03-03T02:39:02;98331.63;;;10.50;99.07
10700;BME280;5401;41.986;21.452;2023-03-03T02:41:37;98328.13;;;10.49;98.63
10700;BME280;5401;41.986;21.452;2023-03-03T02:44:06;98331.41;;;10.51;99.15
10700;BME280;5401;41.986;21.452;2023-03-03T02:46:37;98331.22;;;10.53;99.36
10700;BME280;5401;41.986;21.452;2023-03-03T02:49:07;98310.09;;;10.38;99.31
10700;BME280;5401;41.986;21.452;2023-03-03T02:51:35;98326.69;;;10.53;99.24
10700;BME280;5401;41.986;21.452;2023-03-03T02:54:03;98322.78;;;10.49;99.29
10700;BME280;5401;41.986;21.452;2023-03-03T02:56:32;98331.41;;;10.51;99.21
10700;BME280;5401;41.986;21.452;2023-03-03T02:59:00;98322.19;;;10.47;99.48
10700;BME280;5401;41.986;21.452;2023-03-03T03:01:29;98333.91;;;10.53;99.02
10700;BME280;5401;41.986;21.452;2023-03-03T03:04:05;98325.47;;;10.49;99.44
10700;BME280;5401;41.986;21.452;2023-03-03T03:06:32;98332.84;;;10.54;99.45
10700;BME280;5401;41.986;21.452;2023-03-03T03:09:02;98316.19;;;10.52;99.41
10700;BME280;5401;41.986;21.452;2023-03-03T03:11:29;98325.47;;;10.49;99.26
10700;BME280;5401;41.986;21.452;2023-03-03T03:13:58;98331.88;;;10.48;99.46
10700;BME280;5401;41.986;21.452;2023-03-03T03:16:26;98327.97;;;10.44;99.07
10700;BME280;5401;41.986;21.452;2023-03-03T03:18:54;98324.44;;;10.44;99.04
10700;BME280;5401;41.986;21.452;2023-03-03T03:21:22;98322.22;;;10.41;99.36
10700;BME280;5401;41.986;21.452;2023-03-03T03:23:49;98325.28;;;10.44;99.67
10700;BME280;5401;41.986;21.452;2023-03-03T03:26:17;98326.50;;;10.48;99.55
10700;BME280;5401;41.986;21.452;2023-03-03T03:28:46;98310.84;;;10.45;99.32
10700;BME280;5401;41.986;21.452;2023-03-03T03:31:15;98274.94;;;10.22;99.24
10700;BME280;5401;41.986;21.452;2023-03-03T03:33:43;98318.47;;;10.48;99.42
10700;BME280;5401;41.986;21.452;2023-03-03T03:36:10;98314.97;;;10.48;99.28
10700;BME280;5401;41.986;21.452;2023-03-03T03:38:38;98308.19;;;10.45;99.04
10700;BME280;5401;41.986;21.452;2023-03-03T03:41:06;98280.47;;;10.27;99.72
10700;BME280;5401;41.986;21.452;2023-03-03T03:43:33;98303.03;;;10.44;99.09
10700;BME280;5401;41.986;21.452;2023-03-03T03:46:01;98321.16;;;10.48;99.02
10700;BME280;5401;41.986;21.452;2023-03-03T03:48:30;98312.72;;;10.45;98.93
10700;BME280;5401;41.986;21.452;2023-03-03T03:50:58;98313.34;;;10.47;98.92
10700;BME280;5401;41.986;21.452;2023-03-03T03:53:26;98273.09;;;10.23;98.99
10700;BME280;5401;41.986;21.452;2023-03-03T03:55:53;98311.31;;;10.42;98.68
10700;BME280;5401;41.986;21.452;2023-03-03T03:58:21;98311.91;;;10.44;98.79
10700;BME280;5401;41.986;21.452;2023-03-03T04:00:48;98306.34;;;10.39;98.74
10700;BME280;5401;41.986;21.452;2023-03-03T04:03:16;98318.69;;;10.47;98.61
10700;BME280;5401;41.986;21.452;2023-03-03T04:05:45;98311.31;;;10.42;98.56
10700;BME280;5401;41.986;21.452;2023-03-03T04:08:12;98322.19;;;10.47;98.48
10700;BME280;5401;41.986;21.452;2023-03-03T04:10:40;98283.13;;;10.33;99.07
10700;BME280;5401;41.986;21.452;2023-03-03T04:13:08;98315.81;;;10.48;98.77
10700;BME280;5401;41.986;21.452;2023-03-03T04:15:36;98313.53;;;10.45;98.54
10700;BME280;5401;41.986;21.452;2023-03-03T04:18:03;98310.50;;;10.35;98.82
10700;BME280;5401;41.986;21.452;2023-03-03T04:20:31;98317.50;;;10.36;98.90
10700;BME280;5401;41.986;21.452;2023-03-03T04:23:00;98303.09;;;10.31;99.21
10700;BME280;5401;41.986;21.452;2023-03-03T04:25:28;98307.63;;;10.31;99.21
10700;BME280;5401;41.986;21.452;2023-03-03T04:27:55;98319.31;;;10.42;99.21
10700;BME280;5401;41.986;21.452;2023-03-03T04:30:23;98320.34;;;10.41;98.85
10700;BME280;5401;41.986;21.452;2023-03-03T04:32:51;98325.66;;;10.48;99.11
10700;BME280;5401;41.986;21.452;2023-03-03T04:35:19;98297.31;;;10.34;98.93
10700;BME280;5401;41.986;21.452;2023-03-03T04:37:46;98319.91;;;10.51;98.77
10700;BME280;5401;41.986;21.452;2023-03-03T04:40:16;98301.63;;;10.41;99.16
10700;BME280;5401;41.986;21.452;2023-03-03T04:42:43;98321.53;;;10.52;99.32
10700;BME280;5401;41.986;21.452;2023-03-03T04:45:11;98326.28;;;10.50;98.74
10700;BME280;5401;41.986;21.452;2023-03-03T04:47:39;98324.63;;;10.55;98.69
10700;BME280;5401;41.986;21.452;2023-03-03T04:50:08;98329.97;;;10.55;98.81
10700;BME280;5401;41.986;21.452;2023-03-03T04:52:36;98324.41;;;10.57;98.72
10700;BME280;5401;41.986;21.452;2023-03-03T04:55:04;98324.16;;;10.58;98.68
10700;BME280;5401;41.986;21.452;2023-03-03T04:57:33;98305.09;;;10.48;98.42
10700;BME280;5401;41.986;21.452;2023-03-03T05:00:02;98325.22;;;10.57;98.76
10700;BME280;5401;41.986;21.452;2023-03-03T05:02:31;98323.34;;;10.58;98.84
10700;BME280;5401;41.986;21.452;2023-03-03T05:04:59;98318.00;;;10.58;98.51
10700;BME280;5401;41.986;21.452;2023-03-03T05:07:26;98327.47;;;10.60;98.50
10700;BME280;5401;41.986;21.452;2023-03-03T05:09:54;98291.97;;;10.40;98.35
10700;BME280;5401;41.986;21.452;2023-03-03T05:12:21;98323.16;;;10.59;98.52
10700;BME280;5401;41.986;21.452;2023-03-03T05:14:50;98334.88;;;10.58;98.78
10700;BME280;5401;41.986;21.452;2023-03-03T05:17:18;98321.50;;;10.58;98.62
10700;BME280;5401;41.986;21.452;2023-03-03T05:19:45;98329.97;;;10.55;98.86
10700;BME280;5401;41.986;21.452;2023-03-03T05:22:13;98335.94;;;10.57;98.50
10700;BME280;5401;41.986;21.452;2023-03-03T05:24:46;98320.72;;;10.51;98.55
10700;BME280;5401;41.986;21.452;2023-03-03T05:27:20;98325.88;;;10.53;98.52
10700;BME280;5401;41.986;21.452;2023-03-03T05:29:48;98331.63;;;10.50;98.69
10700;BME280;5401;41.986;21.452;2023-03-03T05:32:17;98316.41;;;10.44;98.53
10700;BME280;5401;41.986;21.452;2023-03-03T05:34:45;98331.19;;;10.59;98.53
10700;BME280;5401;41.986;21.452;2023-03-03T05:37:13;98336.34;;;10.61;98.79
10700;BME280;5401;41.986;21.452;2023-03-03T05:39:41;98334.28;;;10.56;98.74
10700;BME280;5401;41.986;21.452;2023-03-03T05:42:13;98331.63;;;10.50;98.79
10700;BME280;5401;41.986;21.452;2023-03-03T05:44:41;98340.69;;;10.55;98.49
10700;BME280;5401;41.986;21.452;2023-03-03T05:47:09;98343.56;;;10.54;98.33
10700;BME280;5401;41.986;21.452;2023-03-03T05:49:39;98352.00;;;10.57;98.40
10700;BME280;5401;41.986;21.452;2023-03-03T05:52:09;98353.00;;;10.56;98.52
10700;BME280;5401;41.986;21.452;2023-03-03T05:54:37;98325.91;;;10.40;98.54
10700;BME280;5401;41.986;21.452;2023-03-03T05:57:06;98337.00;;;10.43;98.58
10700;BME280;5401;41.986;21.452;2023-03-03T05:59:36;98363.09;;;10.54;98.77
10700;BME280;5401;41.986;21.452;2023-03-03T06:02:04;98358.41;;;10.50;98.64
10700;BME280;5401;41.986;21.452;2023-03-03T06:04:32;98342.56;;;10.42;98.64
10700;BME280;5401;41.986;21.452;2023-03-03T06:07:01;98364.59;;;10.50;98.32
10700;BME280;5401;41.986;21.452;2023-03-03T06:09:29;98365.81;;;10.48;98.43
10700;BME280;5401;41.986;21.452;2023-03-03T06:11:56;98371.16;;;10.48;98.51
10700;BME280;5401;41.986;21.452;2023-03-03T06:14:24;98377.75;;;10.52;99.27
10700;BME280;5401;41.986;21.452;2023-03-03T06:16:51;98363.97;;;10.48;98.88
10700;BME280;5401;41.986;21.452;2023-03-03T06:19:19;98363.75;;;10.50;98.92
10700;BME280;5401;41.986;21.452;2023-03-03T06:21:46;98346.09;;;10.42;99.08
10700;BME280;5401;41.986;21.452;2023-03-03T06:24:15;98369.88;;;10.63;98.99
10700;BME280;5401;41.986;21.452;2023-03-03T06:26:43;98372.56;;;10.63;98.83
10700;BME280;5401;41.986;21.452;2023-03-03T06:29:10;98372.16;;;10.60;98.85
10700;BME280;5401;41.986;21.452;2023-03-03T06:31:38;98369.06;;;10.56;98.69
10700;BME280;5401;41.986;21.452;2023-03-03T06:34:06;98365.16;;;10.52;98.90
10700;BME280;5401;41.986;21.452;2023-03-03T06:36:33;98391.72;;;10.54;98.64
10700;BME280;5401;41.986;21.452;2023-03-03T06:39:01;98360.50;;;10.41;99.34
10700;BME280;5401;41.986;21.452;2023-03-03T06:41:30;98387.00;;;10.56;99.10
10700;BME280;5401;41.986;21.452;2023-03-03T06:43:58;98374.84;;;10.60;99.17
10700;BME280;5401;41.986;21.452;2023-03-03T06:46:25;98383.69;;;10.67;99.15
10700;BME280;5401;41.986;21.452;2023-03-03T06:48:53;98388.38;;;10.71;99.36
10700;BME280;5401;41.986;21.452;2023-03-03T06:51:23;98372.13;;;10.66;99.10
10700;BME280;5401;41.986;21.452;2023-03-03T06:53:54;98378.25;;;10.79;99.18
10700;BME280;5401;41.986;21.452;2023-03-03T06:56:23;98386.69;;;10.83;98.88
10700;BME280;5401;41.986;21.452;2023-03-03T06:58:55;98388.13;;;10.85;98.92
10700;BME280;5401;41.986;21.452;2023-03-03T07:01:24;98384.19;;;10.88;98.92
10700;BME280;5401;41.986;21.452;2023-03-03T07:03:52;98372.47;;;10.82;98.60
10700;BME280;5401;41.986;21.452;2023-03-03T07:06:22;98362.78;;;10.81;98.77
10700;BME280;5401;41.986;21.452;2023-03-03T07:08:50;98383.72;;;10.97;99.03
10700;BME280;5401;41.986;21.452;2023-03-03T07:11:19;98379.19;;;10.98;98.63
10700;BME280;5401;41.986;21.452;2023-03-03T07:13:48;98380.56;;;11.06;99.00
10700;BME280;5401;41.986;21.452;2023-03-03T07:16:19;98374.59;;;11.04;98.52
10700;BME280;5401;41.986;21.452;2023-03-03T07:18:50;98374.75;;;11.16;98.38
10700;BME280;5401;41.986;21.452;2023-03-03T07:21:19;98377.22;;;11.17;98.34
10700;BME280;5401;41.986;21.452;2023-03-03T07:23:48;98374.53;;;11.17;98.15
10700;BME280;5401;41.986;21.452;2023-03-03T07:26:17;98384.81;;;11.20;98.33
10700;BME280;5401;41.986;21.452;2023-03-03T07:28:52;98385.63;;;11.21;98.05
10700;BME280;5401;41.986;21.452;2023-03-03T07:31:28;98367.97;;;11.13;97.91
10700;BME280;5401;41.986;21.452;2023-03-03T07:33:58;98374.91;;;11.21;97.55
10700;BME280;5401;41.986;21.452;2023-03-03T07:36:29;98368.19;;;11.12;97.91
10700;BME280;5401;41.986;21.452;2023-03-03T07:38:58;98357.50;;;11.05;98.01
10700;BME280;5401;41.986;21.452;2023-03-03T07:41:27;98374.97;;;11.14;97.64
10700;BME280;5401;41.986;21.452;2023-03-03T07:44:02;98360.41;;;11.04;97.88
10700;BME280;5401;41.986;21.452;2023-03-03T07:46:40;98381.53;;;11.18;97.64
10700;BME280;5401;41.986;21.452;2023-03-03T07:49:23;98367.19;;;11.06;97.50
10700;BME280;5401;41.986;21.452;2023-03-03T07:52:22;98376.16;;;11.18;97.96
10700;BME280;5401;41.986;21.452;2023-03-03T07:54:51;98374.53;;;11.17;97.43
10700;BME280;5401;41.986;21.452;2023-03-03T07:57:22;98370.22;;;11.16;97.73
10700;BME280;5401;41.986;21.452;2023-03-03T07:59:52;98372.94;;;11.10;97.54
10700;BME280;5401;41.986;21.452;2023-03-03T08:02:36;98347.09;;;10.91;97.77
10700;BME280;5401;41.986;21.452;2023-03-03T08:05:29;98379.34;;;11.02;98.15
10700;BME280;5401;41.986;21.452;2023-03-03T08:08:13;98339.94;;;10.79;97.87
10700;BME280;5401;41.986;21.452;2023-03-03T08:10:47;98370.72;;;11.01;97.26
10700;BME280;5401;41.986;21.452;2023-03-03T08:13:19;98384.09;;;11.07;97.68
10700;BME280;5401;41.986;21.452;2023-03-03T08:15:49;98381.16;;;11.15;97.73
10700;BME280;5401;41.986;21.452;2023-03-03T08:18:22;98379.25;;;11.22;97.88
10700;BME280;5401;41.986;21.452;2023-03-03T08:20:53;98365.03;;;11.21;97.31
10700;BME280;5401;41.986;21.452;2023-03-03T08:23:21;98382.63;;;11.41;97.58
10700;BME280;5401;41.986;21.452;2023-03-03T08:25:50;98366.59;;;11.35;97.48
10700;BME280;5401;41.986;21.452;2023-03-03T08:28:18;98373.16;;;11.45;96.91
10700;BME280;5401;41.986;21.452;2023-03-03T08:30:47;98387.88;;;11.61;96.74
10700;BME280;5401;41.986;21.452;2023-03-03T08:33:15;98370.75;;;11.62;96.40
10700;BME280;5401;41.986;21.452;2023-03-03T08:35:45;98395.38;;;11.76;96.12
10700;BME280;5401;41.986;21.452;2023-03-03T08:38:14;98371.69;;;11.74;96.41
10700;BME280;5401;41.986;21.452;2023-03-03T08:40:42;98368.69;;;11.81;96.26
10700;BME280;5401;41.986;21.452;2023-03-03T08:43:11;98372.78;;;11.90;95.86
10700;BME280;5401;41.986;21.452;2023-03-03T08:45:43;98364.44;;;11.98;95.14
10700;BME280;5401;41.986;21.452;2023-03-03T08:48:12;98385.34;;;12.14;95.11
10700;BME280;5401;41.986;21.452;2023-03-03T08:50:40;98388.09;;;12.25;94.71
10700;BME280;5401;41.986;21.452;2023-03-03T08:53:10;98374.75;;;12.19;94.29
10700;BME280;5401;41.986;21.452;2023-03-03T08:55:39;98352.28;;;12.13;94.74
10700;BME280;5401;41.986;21.452;2023-03-03T08:58:07;98325.22;;;11.97;94.50
10700;BME280;5401;41.986;21.452;2023-03-03T09:00:35;98385.00;;;12.28;93.39
10700;BME280;5401;41.986;21.452;2023-03-03T09:03:04;98381.03;;;12.31;93.87
10700;BME280;5401;41.986;21.452;2023-03-03T09:05:32;98386.03;;;12.45;93.08
10700;BME280;5401;41.986;21.452;2023-03-03T09:08:00;98390.81;;;12.61;92.93
10700;BME280;5401;41.986;21.452;2023-03-03T09:10:29;98375.31;;;12.63;93.31
10700;BME280;5401;41.986;21.452;2023-03-03T09:12:59;98390.75;;;12.85;93.33
10700;BME280;5401;41.986;21.452;2023-03-03T09:15:30;98352.16;;;12.62;92.66
10700;BME280;5401;41.986;21.452;2023-03-03T09:18:04;98366.03;;;12.77;91.88
10700;BME280;5401;41.986;21.452;2023-03-03T09:20:41;98358.75;;;12.83;91.99
10700;BME280;5401;41.986;21.452;2023-03-03T09:23:31;98391.47;;;13.10;91.43
10700;BME280;5401;41.986;21.452;2023-03-03T09:26:22;98370.78;;;13.10;91.88
10700;BME280;5401;41.986;21.452;2023-03-03T09:28:52;98385.47;;;13.25;90.88
10700;BME280;5401;41.986;21.452;2023-03-03T09:31:24;98364.03;;;13.19;90.20
10700;BME280;5401;41.986;21.452;2023-03-03T09:33:52;98385.16;;;13.45;89.79
10700;BME280;5401;41.986;21.452;2023-03-03T09:36:25;98388.81;;;13.50;89.41
10700;BME280;5401;41.986;21.452;2023-03-03T09:38:55;98373.09;;;13.47;88.90
10700;BME280;5401;41.986;21.452;2023-03-03T09:41:40;98376.53;;;13.54;89.47
10700;BME280;5401;41.986;21.452;2023-03-03T09:44:33;98378.53;;;13.58;87.95
10700;BME280;5401;41.986;21.452;2023-03-03T09:47:15;98372.63;;;13.39;88.36
10700;BME280;5401;41.986;21.452;2023-03-03T09:49:56;98382.25;;;13.46;88.80
10700;BME280;5401;41.986;21.452;2023-03-03T09:52:35;98370.25;;;13.60;87.96
10700;BME280;5401;41.986;21.452;2023-03-03T09:55:17;98368.75;;;13.87;87.66
10700;BME280;5401;41.986;21.452;2023-03-03T09:58:12;98371.09;;;13.72;88.05
10700;BME280;5401;41.986;21.452;2023-03-03T10:00:49;98372.00;;;13.77;87.85
10700;BME280;5401;41.986;21.452;2023-03-03T10:03:45;98369.03;;;14.19;87.31
10700;BME280;5401;41.986;21.452;2023-03-03T10:06:21;98355.69;;;14.13;86.33
10700;BME280;5401;41.986;21.452;2023-03-03T10:09:00;98363.06;;;14.17;86.57
10700;BME280;5401;41.986;21.452;2023-03-03T10:11:43;98336.38;;;14.04;85.63
10700;BME280;5401;41.986;21.452;2023-03-03T10:14:36;98363.66;;;14.19;85.18
10700;BME280;5401;41.986;21.452;2023-03-03T10:17:21;98331.97;;;13.69;85.80
10700;BME280;5401;41.986;21.452;2023-03-03T10:20:00;98347.66;;;13.61;85.30
10700;BME280;5401;41.986;21.452;2023-03-03T10:22:35;98363.84;;;13.84;85.38
10700;BME280;5401;41.986;21.452;2023-03-03T10:25:16;98356.53;;;14.02;85.98
10700;BME280;5401;41.986;21.452;2023-03-03T10:28:01;98313.41;;;13.90;85.32
10700;BME280;5401;41.986;21.452;2023-03-03T10:30:39;98356.75;;;14.34;84.42
10700;BME280;5401;41.986;21.452;2023-03-03T10:33:16;98334.47;;;14.27;84.39
10700;BME280;5401;41.986;21.452;2023-03-03T10:35:58;98343.28;;;14.34;84.07
10700;BME280;5401;41.986;21.452;2023-03-03T10:38:38;98341.16;;;14.36;83.68
10700;BME280;5401;41.986;21.452;2023-03-03T10:41:21;98336.75;;;14.58;82.90
10700;BME280;5401;41.986;21.452;2023-03-03T10:44:07;98341.34;;;14.97;82.30
10700;BME280;5401;41.986;21.452;2023-03-03T10:46:59;98327.69;;;15.14;81.50
10700;BME280;5401;41.986;21.452;2023-03-03T10:49:42;98327.69;;;15.14;81.30
10700;BME280;5401;41.986;21.452;2023-03-03T10:52:31;98318.56;;;15.15;80.29
10700;BME280;5401;41.986;21.452;2023-03-03T10:55:27;98320.50;;;15.47;79.83
10700;BME280;5401;41.986;21.452;2023-03-03T10:58:12;98304.16;;;15.54;79.18
10700;BME280;5401;41.986;21.452;2023-03-03T11:00:48;98321.97;;;15.87;78.67
10700;BME280;5401;41.986;21.452;2023-03-03T11:03:44;98319.56;;;16.07;77.72
10700;BME280;5401;41.986;21.452;2023-03-03T11:06:20;98315.25;;;16.06;77.45
10700;BME280;5401;41.986;21.452;2023-03-03T11:08:55;98237.47;;;15.70;76.97
10700;BME280;5401;41.986;21.452;2023-03-03T11:11:32;98304.84;;;16.31;76.36
10700;BME280;5401;41.986;21.452;2023-03-03T11:14:06;98301.00;;;16.10;75.98
10700;BME280;5401;41.986;21.452;2023-03-03T11:16:49;98285.84;;;15.72;76.50
10700;BME280;5401;41.986;21.452;2023-03-03T11:19:43;98303.97;;;15.93;75.92
10700;BME280;5401;41.986;21.452;2023-03-03T11:22:27;98253.66;;;15.87;75.20
10700;BME280;5401;41.986;21.452;2023-03-03T11:25:02;98280.75;;;16.29;75.49
10700;BME280;5401;41.986;21.452;2023-03-03T11:30:43;98286.94;;;16.67;73.94
10700;BME280;5401;41.986;21.452;2023-03-03T11:33:21;98287.81;;;16.51;73.83
10700;BME280;5401;41.986;21.452;2023-03-03T11:36:03;98293.66;;;16.43;73.39
10700;BME280;5401;41.986;21.452;2023-03-03T11:38:42;98268.53;;;15.89;73.26
10700;BME280;5401;41.986;21.452;2023-03-03T11:41:19;98269.06;;;15.70;73.59
10700;BME280;5401;41.986;21.452;2023-03-03T11:43:52;98274.47;;;15.54;74.07
10700;BME280;5401;41.986;21.452;2023-03-03T11:46:25;98260.88;;;15.49;74.00
10700;BME280;5401;41.986;21.452;2023-03-03T11:49:02;98269.38;;;15.41;74.47
10700;BME280;5401;41.986;21.452;2023-03-03T11:51:41;98251.16;;;15.15;74.42
10700;BME280;5401;41.986;21.452;2023-03-03T11:54:16;98244.81;;;15.10;74.49
10700;BME280;5401;41.986;21.452;2023-03-03T11:56:47;98231.31;;;15.10;74.70
10700;BME280;5401;41.986;21.452;2023-03-03T11:59:35;98234.16;;;15.31;74.68
10700;BME280;5401;41.986;21.452;2023-03-03T12:02:18;98242.50;;;15.46;73.90
10700;BME280;5401;41.986;21.452;2023-03-03T12:04:49;98235.13;;;15.41;73.37
10700;BME280;5401;41.986;21.452;2023-03-03T12:07:29;98221.38;;;15.27;73.08
10700;BME280;5401;41.986;21.452;2023-03-03T12:10:11;98224.66;;;15.29;72.91
10700;BME280;5401;41.986;21.452;2023-03-03T12:12:43;98220.53;;;15.10;72.53
10700;BME280;5401;41.986;21.452;2023-03-03T12:15:18;98233.44;;;15.08;73.01
10700;BME280;5401;41.986;21.452;2023-03-03T12:18:01;98220.50;;;14.94;73.20
10700;BME280;5401;41.986;21.452;2023-03-03T12:20:34;98226.53;;;14.84;73.16
10700;BME280;5401;41.986;21.452;2023-03-03T12:23:19;98217.56;;;14.79;72.94
10700;BME280;5401;41.986;21.452;2023-03-03T12:25:57;98222.38;;;14.77;72.53
10700;BME280;5401;41.986;21.452;2023-03-03T12:28:33;98226.53;;;14.84;73.00
10700;BME280;5401;41.986;21.452;2023-03-03T12:31:23;98194.28;;;14.73;72.91
10700;BME280;5401;41.986;21.452;2023-03-03T12:33:58;98214.69;;;14.69;73.09
10700;BME280;5401;41.986;21.452;2023-03-03T12:36:49;98188.34;;;14.60;72.96
10700;BME280;5401;41.986;21.452;2023-03-03T12:39:31;98226.59;;;14.73;73.04
10700;BME280;5401;41.986;21.452;2023-03-03T12:42:13;98225.88;;;14.77;72.90
10700;BME280;5401;41.986;21.452;2023-03-03T12:44:47;98218.13;;;14.81;72.26
10700;BME280;5401;41.986;21.452;2023-03-03T12:47:22;98233.84;;;15.00;72.53
10700;BME280;5401;41.986;21.452;2023-03-03T12:50:01;98211.31;;;15.06;72.15
10700;BME280;5401;41.986;21.452;2023-03-03T12:52:37;98207.84;;;14.94;71.52
10700;BME280;5401;41.986;21.452;2023-03-03T12:55:16;98206.69;;;14.90;71.51
10700;BME280;5401;41.986;21.452;2023-03-03T12:57:54;98207.63;;;14.96;71.37
10700;BME280;5401;41.986;21.452;2023-03-03T13:00:29;98197.91;;;15.11;71.17
10700;BME280;5401;41.986;21.452;2023-03-03T13:03:09;98178.72;;;15.07;70.63
10700;BME280;5401;41.986;21.452;2023-03-03T13:05:47;98199.16;;;15.20;70.33
10700;BME280;5401;41.986;21.452;2023-03-03T13:08:29;98218.25;;;15.02;69.97
10700;BME280;5401;41.986;21.452;2023-03-03T13:11:09;98210.91;;;14.70;69.95
10700;BME280;5401;41.986;21.452;2023-03-03T13:13:47;98206.75;;;14.63;70.83
10700;BME280;5401;41.986;21.452;2023-03-03T13:16:22;98164.88;;;14.44;70.76
10700;BME280;5401;41.986;21.452;2023-03-03T13:18:58;98209.66;;;14.61;70.28
10700;BME280;5401;41.986;21.452;2023-03-03T13:21:32;98209.19;;;14.64;70.35
10700;BME280;5401;41.986;21.452;2023-03-03T13:24:05;98209.66;;;14.61;70.59
10700;BME280;5401;41.986;21.452;2023-03-03T13:26:42;98210.91;;;14.70;70.74
10700;BME280;5401;41.986;21.452;2023-03-03T13:29:14;98189.47;;;14.75;70.37
10700;BME280;5401;41.986;21.452;2023-03-03T13:31:48;98189.63;;;14.85;69.99
10700;BME280;5401;41.986;21.452;2023-03-03T13:34:24;98192.63;;;14.72;70.38
10700;BME280;5401;41.986;21.452;2023-03-03T13:36:58;98185.69;;;14.76;70.15